sensor_id;sensor_type;location;lat;lon;timestamp;temperature;humidity
18173;DHT22;9211;48.818;9.312;2023-09-19T00:02:26;19.90;99.90
18173;DHT22;9211;48.818;9.312;2023-09-19T00:04:53;19.90;99.90
18173;DHT22;9211;48.818;9.312;2023-09-19T00:07:20;19.80;99.90
18173;DHT22;9211;48.818;9.312;2023-09-19T00:09:47;19.90;99.90
18173;DHT22;9211;48.818;9.312;2023-09-19T00:12:14;19.90;99.90
18173;DHT22;9211;48.818;9.312;2023-09-19T00:14:40;19.90;99.90
18173;DHT22;9211;48.818;9.312;2023-09-19T00:17:09;20.00;99.90
18173;DHT22;9211;48.818;9.312;2023-09-19T00:19:36;20.00;99.90
18173;DHT22;9211;48.818;9.312;2023-09-19T00:22:03;19.80;99.90
18173;DHT22;9211;48.818;9.312;2023-09-19T00:24:30;19.70;99.90
18173;DHT22;9211;48.818;9.312;2023-09-19T00:26:57;19.70;99.90
18173;DHT22;9211;48.818;9.312;2023-09-19T00:29:25;19.80;99.90
18173;DHT22;9211;48.818;9.312;2023-09-19T00:31:55;19.80;99.90
18173;DHT22;9211;48.818;9.312;2023-09-19T00:34:24;19.60;99.90
18173;DHT22;9211;48.818;9.312;2023-09-19T00:36:51;19.60;99.90
18173;DHT22;9211;48.818;9.312;2023-09-19T00:39:19;19.60;99.90
18173;DHT22;9211;48.818;9.312;2023-09-19T00:41:47;19.50;99.90
18173;DHT22;9211;48.818;9.312;2023-09-19T00:44:14;19.50;99.90
18173;DHT22;9211;48.818;9.312;2023-09-19T00:46:43;19.50;99.90
18173;DHT22;9211;48.818;9.312;2023-09-19T00:49:13;19.40;99.90
18173;DHT22;9211;48.818;9.312;2023-09-19T00:51:43;19.50;99.90
18173;DHT22;9211;48.818;9.312;2023-09-19T00:54:13;19.40;99.90
18173;DHT22;9211;48.818;9.312;2023-09-19T00:56:44;19.30;99.90
18173;DHT22;9211;48.818;9.312;2023-09-19T00:59:11;19.40;99.90
18173;DHT22;9211;48.818;9.312;2023-09-19T01:01:39;19.40;99.90
18173;DHT22;9211;48.818;9.312;2023-09-19T01:04:06;19.40;99.90
18173;DHT22;9211;48.818;9.312;2023-09-19T01:06:34;19.40;99.90
18173;DHT22;9211;48.818;9.312;2023-09-19T01:09:04;19.30;99.90
18173;DHT22;9211;48.818;9.312;2023-09-19T01:11:35;19.30;99.90
18173;DHT22;9211;48.818;9.312;2023-09-19T01:14:15;19.40;99.90
18173;DHT22;9211;48.818;9.312;2023-09-19T01:16:53;19.30;99.90
18173;DHT22;9211;48.818;9.312;2023-09-19T01:22:21;19.20;99.90
18173;DHT22;9211;48.818;9.312;2023-09-19T01:25:26;19.10;99.90
18173;DHT22;9211;48.818;9.312;2023-09-19T01:28:28;19.10;99.90
18173;DHT22;9211;48.818;9.312;2023-09-19T01:31:07;19.10;99.90
18173;DHT22;9211;48.818;9.312;2023-09-19T01:33:55;19.00;99.90
18173;DHT22;9211;48.818;9.312;2023-09-19T01:36:25;19.10;99.90
18173;DHT22;9211;48.818;9.312;2023-09-19T01:38:54;19.20;99.90
18173;DHT22;9211;48.818;9.312;2023-09-19T01:41:26;19.20;99.90
18173;DHT22;9211;48.818;9.312;2023-09-19T01:43:56;19.20;99.90
18173;DHT22;9211;48.818;9.312;2023-09-19T01:46:33;19.20;99.90
18173;DHT22;9211;48.818;9.312;2023-09-19T01:49:18;19.20;99.90
18173;DHT22;9211;48.818;9.312;2023-09-19T01:51:53;19.20;99.90
18173;DHT22;9211;48.818;9.312;2023-09-19T01:54:26;19.20;99.90
18173;DHT22;9211;48.818;9.312;2023-09-19T01:57:04;19.20;99.90
18173;DHT22;9211;48.818;9.312;2023-09-19T01:59:40;19.10;99.90
18173;DHT22;9211;48.818;9.312;2023-09-19T02:02:10;19.00;99.90
18173;DHT22;9211;48.818;9.312;2023-09-19T02:04:38;19.10;99.90
18173;DHT22;9211;48.818;9.312;2023-09-19T02:07:05;19.10;99.90
18173;DHT22;9211;48.818;9.312;2023-09-19T02:09:34;19.20;99.90
18173;DHT22;9211;48.818;9.312;2023-09-19T02:12:01;19.10;99.90
18173;DHT22;9211;48.818;9.312;2023-09-19T02:14:30;19.10;99.90
18173;DHT22;9211;48.818;9.312;2023-09-19T02:16:57;19.20;99.90
18173;DHT22;9211;48.818;9.312;2023-09-19T02:19:27;19.20;99.90
18173;DHT22;9211;48.818;9.312;2023-09-19T02:21:55;19.10;99.90
18173;DHT22;9211;48.818;9.312;2023-09-19T02:24:22;19.10;99.90
18173;DHT22;9211;48.818;9.312;2023-09-19T02:26:52;19.10;99.90
18173;DHT22;9211;48.818;9.312;2023-09-19T02:29:20;19.10;99.90
18173;DHT22;9211;48.818;9.312;2023-09-19T02:31:47;19.10;99.90
18173;DHT22;9211;48.818;9.312;2023-09-19T02:34:15;19.10;99.90
18173;DHT22;9211;48.818;9.312;2023-09-19T02:36:44;19.10;99.90
18173;DHT22;9211;48.818;9.312;2023-09-19T02:39:12;19.10;99.90
18173;DHT22;9211;48.818;9.312;2023-09-19T02:41:39;19.10;99.90
18173;DHT22;9211;48.818;9.312;2023-09-19T02:44:07;19.00;99.90
18173;DHT22;9211;48.818;9.312;2023-09-19T02:46:34;19.00;99.90
18173;DHT22;9211;48.818;9.312;2023-09-19T02:49:03;18.90;99.90
18173;DHT22;9211;48.818;9.312;2023-09-19T02:51:31;18.90;99.90
18173;DHT22;9211;48.818;9.312;2023-09-19T02:54:00;18.90;99.90
18173;DHT22;9211;48.818;9.312;2023-09-19T02:56:28;18.90;99.90
18173;DHT22;9211;48.818;9.312;2023-09-19T02:58:56;18.80;99.90
18173;DHT22;9211;48.818;9.312;2023-09-19T03:01:24;18.90;99.90
18173;DHT22;9211;48.818;9.312;2023-09-19T03:03:51;18.90;99.90
18173;DHT22;9211;48.818;9.312;2023-09-19T03:06:19;18.90;99.90
18173;DHT22;9211;48.818;9.312;2023-09-19T03:08:47;18.90;99.90
18173;DHT22;9211;48.818;9.312;2023-09-19T03:11:16;18.90;99.90
18173;DHT22;9211;48.818;9.312;2023-09-19T03:13:51;18.90;99.90
18173;DHT22;9211;48.818;9.312;2023-09-19T03:16:18;18.90;99.90
18173;DHT22;9211;48.818;9.312;2023-09-19T03:18:47;18.90;99.90
18173;DHT22;9211;48.818;9.312;2023-09-19T03:21:16;18.90;99.90
18173;DHT22;9211;48.818;9.312;2023-09-19T03:23:45;19.00;99.90
18173;DHT22;9211;48.818;9.312;2023-09-19T03:26:12;18.90;99.90
18173;DHT22;9211;48.818;9.312;2023-09-19T03:28:43;19.00;99.90
18173;DHT22;9211;48.818;9.312;2023-09-19T03:31:12;19.00;99.90
18173;DHT22;9211;48.818;9.312;2023-09-19T03:33:39;19.00;99.90
18173;DHT22;9211;48.818;9.312;2023-09-19T03:36:06;19.00;99.90
18173;DHT22;9211;48.818;9.312;2023-09-19T03:38:34;19.00;99.90
18173;DHT22;9211;48.818;9.312;2023-09-19T03:41:01;19.10;99.90
18173;DHT22;9211;48.818;9.312;2023-09-19T03:43:28;19.00;99.90
18173;DHT22;9211;48.818;9.312;2023-09-19T03:45:56;19.10;99.90
18173;DHT22;9211;48.818;9.312;2023-09-19T03:48:23;19.10;99.90
18173;DHT22;9211;48.818;9.312;2023-09-19T03:50:51;19.00;99.90
18173;DHT22;9211;48.818;9.312;2023-09-19T03:53:19;19.00;99.90
18173;DHT22;9211;48.818;9.312;2023-09-19T03:55:46;19.00;99.90
18173;DHT22;9211;48.818;9.312;2023-09-19T03:58:13;18.90;99.90
18173;DHT22;9211;48.818;9.312;2023-09-19T04:00:40;19.00;99.90
18173;DHT22;9211;48.818;9.312;2023-09-19T04:03:08;19.00;99.90
18173;DHT22;9211;48.818;9.312;2023-09-19T04:05:45;19.10;99.90
18173;DHT22;9211;48.818;9.312;2023-09-19T04:08:13;19.10;99.90
18173;DHT22;9211;48.818;9.312;2023-09-19T04:10:42;19.20;99.90
18173;DHT22;9211;48.818;9.312;2023-09-19T04:13:09;19.40;99.90
18173;DHT22;9211;48.818;9.312;2023-09-19T04:15:36;19.40;99.90
18173;DHT22;9211;48.818;9.312;2023-09-19T04:18:03;19.20;99.90
18173;DHT22;9211;48.818;9.312;2023-09-19T04:20:32;19.20;99.90
18173;DHT22;9211;48.818;9.312;2023-09-19T04:23:00;19.20;99.90
18173;DHT22;9211;48.818;9.312;2023-09-19T04:25:27;19.30;99.90
18173;DHT22;9211;48.818;9.312;2023-09-19T04:27:54;19.40;99.90
18173;DHT22;9211;48.818;9.312;2023-09-19T04:30:21;19.30;99.90
18173;DHT22;9211;48.818;9.312;2023-09-19T04:32:48;19.20;99.90
18173;DHT22;9211;48.818;9.312;2023-09-19T04:35:17;19.00;99.90
18173;DHT22;9211;48.818;9.312;2023-09-19T04:37:45;19.10;99.90
18173;DHT22;9211;48.818;9.312;2023-09-19T04:40:13;19.10;99.90
18173;DHT22;9211;48.818;9.312;2023-09-19T04:42:43;19.00;99.90
18173;DHT22;9211;48.818;9.312;2023-09-19T04:45:10;19.00;99.90
18173;DHT22;9211;48.818;9.312;2023-09-19T04:47:37;19.00;99.90
18173;DHT22;9211;48.818;9.312;2023-09-19T04:50:07;18.90;99.90
18173;DHT22;9211;48.818;9.312;2023-09-19T04:52:38;18.90;99.90
18173;DHT22;9211;48.818;9.312;2023-09-19T04:55:09;18.90;99.90
18173;DHT22;9211;48.818;9.312;2023-09-19T04:57:43;18.80;99.90
18173;DHT22;9211;48.818;9.312;2023-09-19T05:00:12;18.80;99.90
18173;DHT22;9211;48.818;9.312;2023-09-19T05:02:40;18.70;99.90
18173;DHT22;9211;48.818;9.312;2023-09-19T05:05:08;18.70;99.90
18173;DHT22;9211;48.818;9.312;2023-09-19T05:07:35;18.70;99.90
18173;DHT22;9211;48.818;9.312;2023-09-19T05:10:03;18.70;99.90
18173;DHT22;9211;48.818;9.312;2023-09-19T05:12:34;18.70;99.90
18173;DHT22;9211;48.818;9.312;2023-09-19T05:15:01;18.70;99.90
18173;DHT22;9211;48.818;9.312;2023-09-19T05:17:29;18.60;99.90
18173;DHT22;9211;48.818;9.312;2023-09-19T05:19:56;18.60;99.90
18173;DHT22;9211;48.818;9.312;2023-09-19T05:22:23;18.50;99.90
18173;DHT22;9211;48.818;9.312;2023-09-19T05:24:51;18.50;99.90
18173;DHT22;9211;48.818;9.312;2023-09-19T05:27:18;18.40;99.90
18173;DHT22;9211;48.818;9.312;2023-09-19T05:29:47;18.40;99.90
18173;DHT22;9211;48.818;9.312;2023-09-19T05:32:16;18.30;99.90
18173;DHT22;9211;48.818;9.312;2023-09-19T05:34:43;18.30;99.90
18173;DHT22;9211;48.818;9.312;2023-09-19T05:37:10;18.30;99.90
18173;DHT22;9211;48.818;9.312;2023-09-19T05:39:37;18.30;99.90
18173;DHT22;9211;48.818;9.312;2023-09-19T05:42:04;18.40;99.90
18173;DHT22;9211;48.818;9.312;2023-09-19T05:44:31;18.60;99.90
18173;DHT22;9211;48.818;9.312;2023-09-19T05:47:00;18.60;99.90
18173;DHT22;9211;48.818;9.312;2023-09-19T05:49:26;18.50;99.90
18173;DHT22;9211;48.818;9.312;2023-09-19T05:51:54;18.50;99.90
18173;DHT22;9211;48.818;9.312;2023-09-19T05:54:24;18.50;99.90
18173;DHT22;9211;48.818;9.312;2023-09-19T05:56:51;18.60;99.90
18173;DHT22;9211;48.818;9.312;2023-09-19T05:59:19;18.60;99.90
18173;DHT22;9211;48.818;9.312;2023-09-19T06:01:45;18.50;99.90
18173;DHT22;9211;48.818;9.312;2023-09-19T06:04:14;18.50;99.90
18173;DHT22;9211;48.818;9.312;2023-09-19T06:06:41;18.40;99.90
18173;DHT22;9211;48.818;9.312;2023-09-19T06:09:08;18.30;99.90
18173;DHT22;9211;48.818;9.312;2023-09-19T06:11:35;18.20;99.90
18173;DHT22;9211;48.818;9.312;2023-09-19T06:14:02;18.30;99.90
18173;DHT22;9211;48.818;9.312;2023-09-19T06:16:29;18.30;99.90
18173;DHT22;9211;48.818;9.312;2023-09-19T06:18:57;18.30;99.90
18173;DHT22;9211;48.818;9.312;2023-09-19T06:21:26;18.20;99.90
18173;DHT22;9211;48.818;9.312;2023-09-19T06:23:53;17.90;99.90
18173;DHT22;9211;48.818;9.312;2023-09-19T06:26:20;17.70;99.90
18173;DHT22;9211;48.818;9.312;2023-09-19T06:28:49;17.70;99.90
18173;DHT22;9211;48.818;9.312;2023-09-19T06:31:16;17.70;99.90
18173;DHT22;9211;48.818;9.312;2023-09-19T06:33:43;17.60;99.90
18173;DHT22;9211;48.818;9.312;2023-09-19T06:36:10;17.50;99.90
18173;DHT22;9211;48.818;9.312;2023-09-19T06:38:38;17.50;99.90
18173;DHT22;9211;48.818;9.312;2023-09-19T06:41:06;17.60;99.90
18173;DHT22;9211;48.818;9.312;2023-09-19T06:43:34;17.60;99.90
18173;DHT22;9211;48.818;9.312;2023-09-19T06:46:01;17.60;99.90
18173;DHT22;9211;48.818;9.312;2023-09-19T06:48:28;17.60;99.90
18173;DHT22;9211;48.818;9.312;2023-09-19T06:50:56;17.70;99.90
18173;DHT22;9211;48.818;9.312;2023-09-19T06:53:24;17.70;99.90
18173;DHT22;9211;48.818;9.312;2023-09-19T06:55:52;17.70;99.90
18173;DHT22;9211;48.818;9.312;2023-09-19T06:58:19;17.80;99.90
18173;DHT22;9211;48.818;9.312;2023-09-19T07:00:46;17.90;99.90
18173;DHT22;9211;48.818;9.312;2023-09-19T07:03:16;18.00;99.90
18173;DHT22;9211;48.818;9.312;2023-09-19T07:05:48;18.00;99.90
18173;DHT22;9211;48.818;9.312;2023-09-19T07:08:15;18.00;99.90
18173;DHT22;9211;48.818;9.312;2023-09-19T07:10:42;18.10;99.90
18173;DHT22;9211;48.818;9.312;2023-09-19T07:13:15;18.10;99.90
18173;DHT22;9211;48.818;9.312;2023-09-19T07:15:43;18.30;99.90
18173;DHT22;9211;48.818;9.312;2023-09-19T07:18:13;18.30;99.90
18173;DHT22;9211;48.818;9.312;2023-09-19T07:20:41;18.40;99.90
18173;DHT22;9211;48.818;9.312;2023-09-19T07:23:11;18.50;99.90
18173;DHT22;9211;48.818;9.312;2023-09-19T07:25:40;18.60;99.90
18173;DHT22;9211;48.818;9.312;2023-09-19T07:28:07;18.70;99.90
18173;DHT22;9211;48.818;9.312;2023-09-19T07:30:37;18.80;99.90
18173;DHT22;9211;48.818;9.312;2023-09-19T07:33:05;18.80;99.90
18173;DHT22;9211;48.818;9.312;2023-09-19T07:35:32;19.00;99.90
18173;DHT22;9211;48.818;9.312;2023-09-19T07:37:59;19.20;99.90
18173;DHT22;9211;48.818;9.312;2023-09-19T07:40:27;19.40;99.90
18173;DHT22;9211;48.818;9.312;2023-09-19T07:42:54;19.60;99.90
18173;DHT22;9211;48.818;9.312;2023-09-19T07:45:21;19.50;99.90
18173;DHT22;9211;48.818;9.312;2023-09-19T07:47:52;19.40;99.90
18173;DHT22;9211;48.818;9.312;2023-09-19T07:50:19;19.50;99.90
18173;DHT22;9211;48.818;9.312;2023-09-19T07:52:47;19.50;99.90
18173;DHT22;9211;48.818;9.312;2023-09-19T07:55:16;19.60;99.90
18173;DHT22;9211;48.818;9.312;2023-09-19T07:57:45;19.80;99.90
18173;DHT22;9211;48.818;9.312;2023-09-19T08:00:13;19.90;99.90
18173;DHT22;9211;48.818;9.312;2023-09-19T08:02:41;19.90;99.90
18173;DHT22;9211;48.818;9.312;2023-09-19T08:05:10;19.90;99.90
18173;DHT22;9211;48.818;9.312;2023-09-19T08:07:37;20.00;99.90
18173;DHT22;9211;48.818;9.312;2023-09-19T08:10:06;20.20;99.90
18173;DHT22;9211;48.818;9.312;2023-09-19T08:12:38;20.10;99.90
18173;DHT22;9211;48.818;9.312;2023-09-19T08:15:12;20.20;99.90
18173;DHT22;9211;48.818;9.312;2023-09-19T08:17:39;20.10;99.90
18173;DHT22;9211;48.818;9.312;2023-09-19T08:20:07;20.00;99.90
18173;DHT22;9211;48.818;9.312;2023-09-19T08:22:44;20.00;99.90
18173;DHT22;9211;48.818;9.312;2023-09-19T08:25:14;20.20;99.90
18173;DHT22;9211;48.818;9.312;2023-09-19T08:27:43;20.20;99.90
18173;DHT22;9211;48.818;9.312;2023-09-19T08:30:13;20.30;99.90
18173;DHT22;9211;48.818;9.312;2023-09-19T08:32:41;20.40;99.90
18173;DHT22;9211;48.818;9.312;2023-09-19T08:35:09;20.40;99.90
18173;DHT22;9211;48.818;9.312;2023-09-19T08:37:36;20.50;99.90
18173;DHT22;9211;48.818;9.312;2023-09-19T08:40:05;20.50;99.90
18173;DHT22;9211;48.818;9.312;2023-09-19T08:42:47;20.40;99.90
18173;DHT22;9211;48.818;9.312;2023-09-19T08:45:15;20.40;99.90
18173;DHT22;9211;48.818;9.312;2023-09-19T08:47:46;20.40;99.90
18173;DHT22;9211;48.818;9.312;2023-09-19T08:50:19;20.40;99.90
18173;DHT22;9211;48.818;9.312;2023-09-19T08:52:51;20.50;99.90
18173;DHT22;9211;48.818;9.312;2023-09-19T08:55:26;20.50;99.90
18173;DHT22;9211;48.818;9.312;2023-09-19T08:57:59;20.40;99.90
18173;DHT22;9211;48.818;9.312;2023-09-19T09:00:27;20.40;99.90
18173;DHT22;9211;48.818;9.312;2023-09-19T09:02:55;20.40;99.90
18173;DHT22;9211;48.818;9.312;2023-09-19T09:05:23;20.30;99.90
18173;DHT22;9211;48.818;9.312;2023-09-19T09:07:52;20.40;99.90
18173;DHT22;9211;48.818;9.312;2023-09-19T09:10:23;20.50;99.90
18173;DHT22;9211;48.818;9.312;2023-09-19T09:12:51;20.80;99.90
18173;DHT22;9211;48.818;9.312;2023-09-19T09:15:19;20.70;99.90
18173;DHT22;9211;48.818;9.312;2023-09-19T09:17:49;20.70;99.90
18173;DHT22;9211;48.818;9.312;2023-09-19T09:20:16;20.80;99.90
18173;DHT22;9211;48.818;9.312;2023-09-19T09:22:51;20.80;99.90
18173;DHT22;9211;48.818;9.312;2023-09-19T09:25:19;20.90;99.90
18173;DHT22;9211;48.818;9.312;2023-09-19T09:28:00;20.90;99.90
18173;DHT22;9211;48.818;9.312;2023-09-19T09:30:34;21.00;99.90
18173;DHT22;9211;48.818;9.312;2023-09-19T09:33:09;21.10;99.90
18173;DHT22;9211;48.818;9.312;2023-09-19T09:35:37;21.20;99.90
18173;DHT22;9211;48.818;9.312;2023-09-19T09:38:06;21.20;99.90
18173;DHT22;9211;48.818;9.312;2023-09-19T09:40:50;21.20;99.90
18173;DHT22;9211;48.818;9.312;2023-09-19T09:43:29;21.40;99.90
18173;DHT22;9211;48.818;9.312;2023-09-19T09:46:11;21.40;99.90
18173;DHT22;9211;48.818;9.312;2023-09-19T09:49:10;21.50;99.90
18173;DHT22;9211;48.818;9.312;2023-09-19T09:51:45;21.70;99.90
18173;DHT22;9211;48.818;9.312;2023-09-19T09:54:23;21.70;99.90
18173;DHT22;9211;48.818;9.312;2023-09-19T09:56:57;21.80;99.90
18173;DHT22;9211;48.818;9.312;2023-09-19T09:59:54;21.90;99.90
18173;DHT22;9211;48.818;9.312;2023-09-19T10:02:26;22.10;99.90
18173;DHT22;9211;48.818;9.312;2023-09-19T10:04:59;22.30;99.90
18173;DHT22;9211;48.818;9.312;2023-09-19T10:07:35;22.40;99.90
18173;DHT22;9211;48.818;9.312;2023-09-19T10:10:04;22.50;99.90
18173;DHT22;9211;48.818;9.312;2023-09-19T10:12:45;22.50;99.90
18173;DHT22;9211;48.818;9.312;2023-09-19T10:15:16;22.50;99.90
18173;DHT22;9211;48.818;9.312;2023-09-19T10:17:46;22.60;99.90
18173;DHT22;9211;48.818;9.312;2023-09-19T10:20:13;22.60;99.90
18173;DHT22;9211;48.818;9.312;2023-09-19T10:22:59;22.60;99.90
18173;DHT22;9211;48.818;9.312;2023-09-19T10:25:28;22.60;99.90
18173;DHT22;9211;48.818;9.312;2023-09-19T10:27:57;22.60;99.90
18173;DHT22;9211;48.818;9.312;2023-09-19T10:30:29;22.60;99.90
18173;DHT22;9211;48.818;9.312;2023-09-19T10:33:01;22.40;99.90
18173;DHT22;9211;48.818;9.312;2023-09-19T10:35:28;22.50;99.90
18173;DHT22;9211;48.818;9.312;2023-09-19T10:37:59;22.30;99.90
18173;DHT22;9211;48.818;9.312;2023-09-19T10:40:28;22.10;99.90
18173;DHT22;9211;48.818;9.312;2023-09-19T10:43:01;22.20;99.90
18173;DHT22;9211;48.818;9.312;2023-09-19T10:45:33;22.10;99.90
18173;DHT22;9211;48.818;9.312;2023-09-19T10:48:01;22.10;99.90
18173;DHT22;9211;48.818;9.312;2023-09-19T10:50:32;22.00;99.90
18173;DHT22;9211;48.818;9.312;2023-09-19T10:53:02;22.00;99.90
18173;DHT22;9211;48.818;9.312;2023-09-19T10:55:33;22.20;99.90
18173;DHT22;9211;48.818;9.312;2023-09-19T10:58:02;22.40;99.90
18173;DHT22;9211;48.818;9.312;2023-09-19T11:00:52;22.40;99.90
18173;DHT22;9211;48.818;9.312;2023-09-19T11:03:21;22.50;99.90
18173;DHT22;9211;48.818;9.312;2023-09-19T11:06:05;22.70;99.90
18173;DHT22;9211;48.818;9.312;2023-09-19T11:09:00;22.70;99.90
18173;DHT22;9211;48.818;9.312;2023-09-19T11:11:46;22.90;99.90
18173;DHT22;9211;48.818;9.312;2023-09-19T11:14:38;22.90;99.90
18173;DHT22;9211;48.818;9.312;2023-09-19T11:17:35;23.20;99.90
18173;DHT22;9211;48.818;9.312;2023-09-19T11:20:22;23.30;99.90
18173;DHT22;9211;48.818;9.312;2023-09-19T11:23:22;23.40;99.90
18173;DHT22;9211;48.818;9.312;2023-09-19T11:25:52;23.40;99.90
18173;DHT22;9211;48.818;9.312;2023-09-19T11:28:35;23.30;99.90
18173;DHT22;9211;48.818;9.312;2023-09-19T11:34:43;23.30;99.90
18173;DHT22;9211;48.818;9.312;2023-09-19T11:40:37;23.70;99.90
18173;DHT22;9211;48.818;9.312;2023-09-19T11:43:32;23.80;99.90
18173;DHT22;9211;48.818;9.312;2023-09-19T11:46:03;24.00;99.90
18173;DHT22;9211;48.818;9.312;2023-09-19T11:48:29;24.10;99.90
18173;DHT22;9211;48.818;9.312;2023-09-19T11:51:00;24.20;99.90
18173;DHT22;9211;48.818;9.312;2023-09-19T11:53:33;24.10;99.90
18173;DHT22;9211;48.818;9.312;2023-09-19T11:56:02;24.20;99.90
18173;DHT22;9211;48.818;9.312;2023-09-19T11:58:32;24.20;99.90
18173;DHT22;9211;48.818;9.312;2023-09-19T12:01:00;24.40;99.90
18173;DHT22;9211;48.818;9.312;2023-09-19T12:03:36;24.20;99.90
18173;DHT22;9211;48.818;9.312;2023-09-19T12:06:12;24.40;99.90
18173;DHT22;9211;48.818;9.312;2023-09-19T12:08:41;24.40;99.90
18173;DHT22;9211;48.818;9.312;2023-09-19T12:11:15;24.60;99.90
18173;DHT22;9211;48.818;9.312;2023-09-19T12:13:43;24.70;99.90
18173;DHT22;9211;48.818;9.312;2023-09-19T12:16:13;24.90;99.90
18173;DHT22;9211;48.818;9.312;2023-09-19T12:18:42;24.90;99.90
18173;DHT22;9211;48.818;9.312;2023-09-19T12:21:26;24.90;99.90
18173;DHT22;9211;48.818;9.312;2023-09-19T12:24:07;24.90;99.90
18173;DHT22;9211;48.818;9.312;2023-09-19T12:26:42;24.90;99.90
18173;DHT22;9211;48.818;9.312;2023-09-19T12:29:17;24.70;99.90
18173;DHT22;9211;48.818;9.312;2023-09-19T12:31:51;24.70;99.90
18173;DHT22;9211;48.818;9.312;2023-09-19T12:34:21;24.50;99.90
18173;DHT22;9211;48.818;9.312;2023-09-19T12:37:03;24.50;99.90
18173;DHT22;9211;48.818;9.312;2023-09-19T12:39:31;24.60;99.90
18173;DHT22;9211;48.818;9.312;2023-09-19T12:41:57;24.50;99.90
18173;DHT22;9211;48.818;9.312;2023-09-19T12:44:24;24.40;99.90
18173;DHT22;9211;48.818;9.312;2023-09-19T12:46:51;24.60;99.90
18173;DHT22;9211;48.818;9.312;2023-09-19T12:49:20;24.70;99.90
18173;DHT22;9211;48.818;9.312;2023-09-19T12:51:51;24.90;99.90
18173;DHT22;9211;48.818;9.312;2023-09-19T12:54:22;25.20;99.90
18173;DHT22;9211;48.818;9.312;2023-09-19T12:56:51;25.30;99.90
18173;DHT22;9211;48.818;9.312;2023-09-19T12:59:29;25.40;99.90
18173;DHT22;9211;48.818;9.312;2023-09-19T13:02:04;25.50;99.90
18173;DHT22;9211;48.818;9.312;2023-09-19T13:04:33;25.50;99.90
18173;DHT22;9211;48.818;9.312;2023-09-19T13:07:07;25.60;99.90
18173;DHT22;9211;48.818;9.312;2023-09-19T13:09:34;25.80;99.90
18173;DHT22;9211;48.818;9.312;2023-09-19T13:12:01;25.90;99.90
18173;DHT22;9211;48.818;9.312;2023-09-19T13:14:30;26.10;99.90
18173;DHT22;9211;48.818;9.312;2023-09-19T13:17:00;26.10;99.90
18173;DHT22;9211;48.818;9.312;2023-09-19T13:19:38;26.00;99.90
18173;DHT22;9211;48.818;9.312;2023-09-19T13:22:37;26.10;99.90
18173;DHT22;9211;48.818;9.312;2023-09-19T13:25:06;26.10;99.70
18173;DHT22;9211;48.818;9.312;2023-09-19T13:27:33;26.10;99.90
18173;DHT22;9211;48.818;9.312;2023-09-19T13:30:00;26.10;99.10
18173;DHT22;9211;48.818;9.312;2023-09-19T13:32:27;26.30;98.90
18173;DHT22;9211;48.818;9.312;2023-09-19T13:34:54;26.50;99.90
18173;DHT22;9211;48.818;9.312;2023-09-19T13:37:22;26.70;99.90
18173;DHT22;9211;48.818;9.312;2023-09-19T13:39:49;26.80;99.80
18173;DHT22;9211;48.818;9.312;2023-09-19T13:42:17;26.90;98.80
18173;DHT22;9211;48.818;9.312;2023-09-19T13:44:47;27.10;99.90
18173;DHT22;9211;48.818;9.312;2023-09-19T13:47:14;27.20;99.20
18173;DHT22;9211;48.818;9.312;2023-09-19T13:49:42;27.40;99.90
18173;DHT22;9211;48.818;9.312;2023-09-19T13:52:10;27.30;99.90
18173;DHT22;9211;48.818;9.312;2023-09-19T13:54:39;27.30;98.90
18173;DHT22;9211;48.818;9.312;2023-09-19T13:57:06;27.00;99.50
18173;DHT22;9211;48.818;9.312;2023-09-19T13:59:33;26.90;99.40
18173;DHT22;9211;48.818;9.312;2023-09-19T14:02:00;27.10;99.00
18173;DHT22;9211;48.818;9.312;2023-09-19T14:04:31;27.00;97.40
18173;DHT22;9211;48.818;9.312;2023-09-19T14:07:00;26.90;97.80
18173;DHT22;9211;48.818;9.312;2023-09-19T14:09:27;26.80;97.20
18173;DHT22;9211;48.818;9.312;2023-09-19T14:11:55;26.70;97.70
18173;DHT22;9211;48.818;9.312;2023-09-19T14:14:22;26.50;97.30
18173;DHT22;9211;48.818;9.312;2023-09-19T14:16:49;26.20;97.00
18173;DHT22;9211;48.818;9.312;2023-09-19T14:19:18;26.10;97.00
18173;DHT22;9211;48.818;9.312;2023-09-19T14:21:45;26.00;96.70
18173;DHT22;9211;48.818;9.312;2023-09-19T14:24:16;26.00;97.60
18173;DHT22;9211;48.818;9.312;2023-09-19T14:26:43;25.90;98.00
18173;DHT22;9211;48.818;9.312;2023-09-19T14:29:12;25.80;98.30
18173;DHT22;9211;48.818;9.312;2023-09-19T14:31:40;25.80;98.70
18173;DHT22;9211;48.818;9.312;2023-09-19T14:34:07;25.80;97.20
18173;DHT22;9211;48.818;9.312;2023-09-19T14:36:35;25.60;96.10
18173;DHT22;9211;48.818;9.312;2023-09-19T14:39:04;25.60;96.00
18173;DHT22;9211;48.818;9.312;2023-09-19T14:41:32;25.30;96.10
18173;DHT22;9211;48.818;9.312;2023-09-19T14:43:58;25.10;96.70
18173;DHT22;9211;48.818;9.312;2023-09-19T14:46:26;25.00;97.00
18173;DHT22;9211;48.818;9.312;2023-09-19T14:48:55;25.00;97.30
18173;DHT22;9211;48.818;9.312;2023-09-19T14:51:25;25.00;97.00
18173;DHT22;9211;48.818;9.312;2023-09-19T14:53:53;25.00;97.60
18173;DHT22;9211;48.818;9.312;2023-09-19T14:56:20;24.90;97.80
18173;DHT22;9211;48.818;9.312;2023-09-19T14:58:49;24.90;96.90
18173;DHT22;9211;48.818;9.312;2023-09-19T15:01:17;24.80;95.80
18173;DHT22;9211;48.818;9.312;2023-09-19T15:03:46;24.80;96.30
18173;DHT22;9211;48.818;9.312;2023-09-19T15:06:14;24.70;97.20
18173;DHT22;9211;48.818;9.312;2023-09-19T15:08:43;24.80;97.70
18173;DHT22;9211;48.818;9.312;2023-09-19T15:11:12;24.60;97.50
18173;DHT22;9211;48.818;9.312;2023-09-19T15:13:42;24.60;96.50
18173;DHT22;9211;48.818;9.312;2023-09-19T15:16:09;24.50;97.00
18173;DHT22;9211;48.818;9.312;2023-09-19T15:18:37;24.60;96.50
18173;DHT22;9211;48.818;9.312;2023-09-19T15:21:07;24.60;96.30
18173;DHT22;9211;48.818;9.312;2023-09-19T15:23:35;24.70;96.60
18173;DHT22;9211;48.818;9.312;2023-09-19T15:26:02;24.50;96.90
18173;DHT22;9211;48.818;9.312;2023-09-19T15:28:29;24.30;97.50
18173;DHT22;9211;48.818;9.312;2023-09-19T15:30:59;24.30;97.60
18173;DHT22;9211;48.818;9.312;2023-09-19T15:33:26;24.20;98.20
18173;DHT22;9211;48.818;9.312;2023-09-19T15:36:01;24.30;96.70
18173;DHT22;9211;48.818;9.312;2023-09-19T15:38:30;24.40;95.70
18173;DHT22;9211;48.818;9.312;2023-09-19T15:40:58;24.30;96.10
18173;DHT22;9211;48.818;9.312;2023-09-19T15:43:25;24.40;96.10
18173;DHT22;9211;48.818;9.312;2023-09-19T15:45:52;24.30;96.60
18173;DHT22;9211;48.818;9.312;2023-09-19T15:48:19;24.40;97.60
18173;DHT22;9211;48.818;9.312;2023-09-19T15:50:47;24.30;98.50
18173;DHT22;9211;48.818;9.312;2023-09-19T15:53:14;24.20;96.90
18173;DHT22;9211;48.818;9.312;2023-09-19T15:55:43;24.20;97.60
18173;DHT22;9211;48.818;9.312;2023-09-19T15:58:10;24.20;97.20
18173;DHT22;9211;48.818;9.312;2023-09-19T16:00:40;24.20;96.90
18173;DHT22;9211;48.818;9.312;2023-09-19T16:03:07;24.10;98.30
18173;DHT22;9211;48.818;9.312;2023-09-19T16:05:35;24.00;98.70
18173;DHT22;9211;48.818;9.312;2023-09-19T16:08:05;23.90;99.60
18173;DHT22;9211;48.818;9.312;2023-09-19T16:10:34;23.90;97.40
18173;DHT22;9211;48.818;9.312;2023-09-19T16:13:04;23.90;97.40
18173;DHT22;9211;48.818;9.312;2023-09-19T16:15:31;24.00;97.30